sensor_id;sensor_type;location;lat;lon;timestamp;temperature;humidity
28546;DHT22;15749;49.606;8.738;2023-03-14T00:01:30;15.90;80.30
28546;DHT22;15749;49.606;8.738;2023-03-14T00:03:59;15.80;80.40
28546;DHT22;15749;49.606;8.738;2023-03-14T00:06:29;15.80;80.40
28546;DHT22;15749;49.606;8.738;2023-03-14T00:08:59;15.90;80.40
28546;DHT22;15749;49.606;8.738;2023-03-14T00:11:29;15.90;80.50
28546;DHT22;15749;49.606;8.738;2023-03-14T00:13:58;15.90;80.50
28546;DHT22;15749;49.606;8.738;2023-03-14T00:16:29;15.90;80.40
28546;DHT22;15749;49.606;8.738;2023-03-14T00:18:59;15.80;80.40
28546;DHT22;15749;49.606;8.738;2023-03-14T00:21:29;15.80;80.40
28546;DHT22;15749;49.606;8.738;2023-03-14T00:23:58;15.90;80.60
28546;DHT22;15749;49.606;8.738;2023-03-14T00:26:28;15.80;80.50
28546;DHT22;15749;49.606;8.738;2023-03-14T00:28:58;15.80;80.70
28546;DHT22;15749;49.606;8.738;2023-03-14T00:31:28;15.90;80.60
28546;DHT22;15749;49.606;8.738;2023-03-14T00:33:59;15.80;80.40
28546;DHT22;15749;49.606;8.738;2023-03-14T00:36:28;15.90;80.50
28546;DHT22;15749;49.606;8.738;2023-03-14T00:38:57;15.80;80.50
28546;DHT22;15749;49.606;8.738;2023-03-14T00:41:27;15.90;80.70
28546;DHT22;15749;49.606;8.738;2023-03-14T00:43:56;15.80;80.80
28546;DHT22;15749;49.606;8.738;2023-03-14T00:46:27;15.90;80.80
28546;DHT22;15749;49.606;8.738;2023-03-14T00:48:58;15.90;80.80
28546;DHT22;15749;49.606;8.738;2023-03-14T00:51:27;15.90;81.00
28546;DHT22;15749;49.606;8.738;2023-03-14T00:53:57;15.90;80.80
28546;DHT22;15749;49.606;8.738;2023-03-14T00:56:27;15.90;80.90
28546;DHT22;15749;49.606;8.738;2023-03-14T00:58:56;15.90;81.00
28546;DHT22;15749;49.606;8.738;2023-03-14T01:01:26;15.80;80.90
28546;DHT22;15749;49.606;8.738;2023-03-14T01:03:59;15.90;80.90
28546;DHT22;15749;49.606;8.738;2023-03-14T01:06:29;15.80;81.00
28546;DHT22;15749;49.606;8.738;2023-03-14T01:08:59;15.80;80.80
28546;DHT22;15749;49.606;8.738;2023-03-14T01:11:30;15.90;80.90
28546;DHT22;15749;49.606;8.738;2023-03-14T01:14:32;15.80;81.00
28546;DHT22;15749;49.606;8.738;2023-03-14T02:09:21;15.80;81.30
28546;DHT22;15749;49.606;8.738;2023-03-14T02:11:52;15.80;81.30
28546;DHT22;15749;49.606;8.738;2023-03-14T02:14:54;15.80;80.70
28546;DHT22;15749;49.606;8.738;2023-03-14T02:17:31;15.80;80.60
28546;DHT22;15749;49.606;8.738;2023-03-14T02:20:32;15.80;80.80
28546;DHT22;15749;49.606;8.738;2023-03-14T02:23:05;15.80;81.20
28546;DHT22;15749;49.606;8.738;2023-03-14T02:25:40;15.80;81.10
28546;DHT22;15749;49.606;8.738;2023-03-14T02:28:16;15.80;81.00
28546;DHT22;15749;49.606;8.738;2023-03-14T02:30:48;15.80;80.90
28546;DHT22;15749;49.606;8.738;2023-03-14T02:33:20;15.80;80.70
28546;DHT22;15749;49.606;8.738;2023-03-14T02:35:52;15.80;81.10
28546;DHT22;15749;49.606;8.738;2023-03-14T02:38:29;15.80;81.20
28546;DHT22;15749;49.606;8.738;2023-03-14T02:41:02;15.80;81.20
28546;DHT22;15749;49.606;8.738;2023-03-14T02:43:38;15.80;81.10
28546;DHT22;15749;49.606;8.738;2023-03-14T02:46:13;15.80;80.70
28546;DHT22;15749;49.606;8.738;2023-03-14T02:48:45;15.80;81.20
28546;DHT22;15749;49.606;8.738;2023-03-14T02:51:17;15.80;81.20
28546;DHT22;15749;49.606;8.738;2023-03-14T02:53:48;15.80;80.90
28546;DHT22;15749;49.606;8.738;2023-03-14T02:56:18;15.80;80.60
28546;DHT22;15749;49.606;8.738;2023-03-14T02:58:49;15.80;80.90
28546;DHT22;15749;49.606;8.738;2023-03-14T03:01:29;15.80;80.40
28546;DHT22;15749;49.606;8.738;2023-03-14T03:03:59;15.80;80.70
28546;DHT22;15749;49.606;8.738;2023-03-14T03:06:29;15.80;80.90
28546;DHT22;15749;49.606;8.738;2023-03-14T03:08:58;15.80;80.80
28546;DHT22;15749;49.606;8.738;2023-03-14T03:11:28;15.80;80.80
28546;DHT22;15749;49.606;8.738;2023-03-14T03:13:58;15.80;80.70
28546;DHT22;15749;49.606;8.738;2023-03-14T03:16:29;15.80;80.70
28546;DHT22;15749;49.606;8.738;2023-03-14T03:19:00;15.80;80.40
28546;DHT22;15749;49.606;8.738;2023-03-14T03:21:29;15.80;80.80
28546;DHT22;15749;49.606;8.738;2023-03-14T03:23:59;15.80;80.70
28546;DHT22;15749;49.606;8.738;2023-03-14T03:26:29;15.80;80.70
28546;DHT22;15749;49.606;8.738;2023-03-14T03:29:00;15.80;80.80
28546;DHT22;15749;49.606;8.738;2023-03-14T03:31:30;15.80;80.80
28546;DHT22;15749;49.606;8.738;2023-03-14T03:34:00;15.80;80.70
28546;DHT22;15749;49.606;8.738;2023-03-14T03:36:30;15.80;80.70
28546;DHT22;15749;49.606;8.738;2023-03-14T03:39:00;15.80;80.90
28546;DHT22;15749;49.606;8.738;2023-03-14T03:41:30;15.80;81.00
28546;DHT22;15749;49.606;8.738;2023-03-14T03:44:02;15.80;81.20
28546;DHT22;15749;49.606;8.738;2023-03-14T03:46:34;15.80;81.30
28546;DHT22;15749;49.606;8.738;2023-03-14T03:49:04;15.80;81.10
28546;DHT22;15749;49.606;8.738;2023-03-14T03:51:34;15.80;80.90
28546;DHT22;15749;49.606;8.738;2023-03-14T03:54:04;15.80;81.00
28546;DHT22;15749;49.606;8.738;2023-03-14T03:56:34;15.80;81.10
28546;DHT22;15749;49.606;8.738;2023-03-14T03:59:05;15.80;80.80
28546;DHT22;15749;49.606;8.738;2023-03-14T04:01:35;15.80;80.80
28546;DHT22;15749;49.606;8.738;2023-03-14T04:04:05;15.80;81.30
28546;DHT22;15749;49.606;8.738;2023-03-14T04:06:37;15.80;80.90
28546;DHT22;15749;49.606;8.738;2023-03-14T04:09:08;15.80;80.80
28546;DHT22;15749;49.606;8.738;2023-03-14T04:11:44;15.70;80.70
28546;DHT22;15749;49.606;8.738;2023-03-14T04:14:21;15.80;80.50
28546;DHT22;15749;49.606;8.738;2023-03-14T04:17:26;15.70;80.70
28546;DHT22;15749;49.606;8.738;2023-03-14T04:19:56;15.70;80.50
28546;DHT22;15749;49.606;8.738;2023-03-14T04:22:34;15.70;80.70
28546;DHT22;15749;49.606;8.738;2023-03-14T04:25:05;15.70;80.50
28546;DHT22;15749;49.606;8.738;2023-03-14T04:27:42;15.70;81.00
28546;DHT22;15749;49.606;8.738;2023-03-14T04:30:26;15.70;80.80
28546;DHT22;15749;49.606;8.738;2023-03-14T04:33:03;15.70;80.80
28546;DHT22;15749;49.606;8.738;2023-03-14T04:35:36;15.70;80.70
28546;DHT22;15749;49.606;8.738;2023-03-14T04:38:10;15.70;80.50
28546;DHT22;15749;49.606;8.738;2023-03-14T04:40:42;15.70;80.70
28546;DHT22;15749;49.606;8.738;2023-03-14T04:43:14;15.70;80.70
28546;DHT22;15749;49.606;8.738;2023-03-14T04:45:56;15.70;80.50
28546;DHT22;15749;49.606;8.738;2023-03-14T04:48:27;15.70;80.70
28546;DHT22;15749;49.606;8.738;2023-03-14T04:50:59;15.70;80.50
28546;DHT22;15749;49.606;8.738;2023-03-14T04:53:32;15.70;80.70
28546;DHT22;15749;49.606;8.738;2023-03-14T04:56:07;15.70;80.40
28546;DHT22;15749;49.606;8.738;2023-03-14T04:58:39;15.70;80.70
28546;DHT22;15749;49.606;8.738;2023-03-14T05:01:12;15.70;80.50
28546;DHT22;15749;49.606;8.738;2023-03-14T05:04:10;15.70;80.40
28546;DHT22;15749;49.606;8.738;2023-03-14T05:06:51;15.60;80.30
28546;DHT22;15749;49.606;8.738;2023-03-14T05:09:29;15.70;80.40
28546;DHT22;15749;49.606;8.738;2023-03-14T05:12:22;15.70;80.40
28546;DHT22;15749;49.606;8.738;2023-03-14T05:15:01;15.70;80.30
28546;DHT22;15749;49.606;8.738;2023-03-14T05:17:50;15.70;80.40
28546;DHT22;15749;49.606;8.738;2023-03-14T05:20:40;15.70;80.50
28546;DHT22;15749;49.606;8.738;2023-03-14T05:23:20;15.70;80.30
28546;DHT22;15749;49.606;8.738;2023-03-14T05:26:28;15.70;80.40
28546;DHT22;15749;49.606;8.738;2023-03-14T05:29:25;15.70;80.20
28546;DHT22;15749;49.606;8.738;2023-03-14T05:32:11;15.70;79.80
28546;DHT22;15749;49.606;8.738;2023-03-14T05:35:09;15.70;79.80
28546;DHT22;15749;49.606;8.738;2023-03-14T05:37:57;15.70;79.90
28546;DHT22;15749;49.606;8.738;2023-03-14T05:40:57;15.60;79.60
28546;DHT22;15749;49.606;8.738;2023-03-14T05:44:02;15.60;79.50
28546;DHT22;15749;49.606;8.738;2023-03-14T05:46:54;15.60;79.50
28546;DHT22;15749;49.606;8.738;2023-03-14T05:49:36;15.60;79.40
28546;DHT22;15749;49.606;8.738;2023-03-14T05:52:33;15.60;79.30
28546;DHT22;15749;49.606;8.738;2023-03-14T05:55:04;15.60;79.30
28546;DHT22;15749;49.606;8.738;2023-03-14T05:57:58;15.60;79.70
28546;DHT22;15749;49.606;8.738;2023-03-14T06:00:48;15.60;79.60
28546;DHT22;15749;49.606;8.738;2023-03-14T06:03:31;15.60;79.70
28546;DHT22;15749;49.606;8.738;2023-03-14T06:06:02;15.60;79.60
28546;DHT22;15749;49.606;8.738;2023-03-14T06:08:33;15.60;79.80
28546;DHT22;15749;49.606;8.738;2023-03-14T06:11:04;15.60;79.40
28546;DHT22;15749;49.606;8.738;2023-03-14T06:13:35;15.60;79.70
28546;DHT22;15749;49.606;8.738;2023-03-14T06:16:06;15.60;79.60
28546;DHT22;15749;49.606;8.738;2023-03-14T06:18:36;15.50;79.60
28546;DHT22;15749;49.606;8.738;2023-03-14T06:21:08;15.50;79.40
28546;DHT22;15749;49.606;8.738;2023-03-14T06:23:40;15.50;79.50
28546;DHT22;15749;49.606;8.738;2023-03-14T06:26:11;15.50;79.30
28546;DHT22;15749;49.606;8.738;2023-03-14T06:28:40;15.50;79.40
28546;DHT22;15749;49.606;8.738;2023-03-14T06:31:10;15.50;80.10
28546;DHT22;15749;49.606;8.738;2023-03-14T06:33:52;15.50;79.40
28546;DHT22;15749;49.606;8.738;2023-03-14T06:36:26;15.50;79.40
28546;DHT22;15749;49.606;8.738;2023-03-14T06:38:59;15.60;79.30
28546;DHT22;15749;49.606;8.738;2023-03-14T06:41:31;15.60;79.10
28546;DHT22;15749;49.606;8.738;2023-03-14T06:44:02;15.50;79.20
28546;DHT22;15749;49.606;8.738;2023-03-14T06:46:33;15.60;79.30
28546;DHT22;15749;49.606;8.738;2023-03-14T06:49:03;15.60;79.10
28546;DHT22;15749;49.606;8.738;2023-03-14T06:51:34;15.60;79.20
28546;DHT22;15749;49.606;8.738;2023-03-14T06:54:07;15.50;79.30
28546;DHT22;15749;49.606;8.738;2023-03-14T06:56:37;15.50;79.40
28546;DHT22;15749;49.606;8.738;2023-03-14T06:59:07;15.60;80.30
28546;DHT22;15749;49.606;8.738;2023-03-14T07:01:37;15.60;79.90
28546;DHT22;15749;49.606;8.738;2023-03-14T07:04:11;15.60;79.70
28546;DHT22;15749;49.606;8.738;2023-03-14T07:06:45;15.60;79.70
28546;DHT22;15749;49.606;8.738;2023-03-14T07:09:17;15.60;79.60
28546;DHT22;15749;49.606;8.738;2023-03-14T07:11:53;15.60;79.70
28546;DHT22;15749;49.606;8.738;2023-03-14T07:14:23;15.60;79.80
28546;DHT22;15749;49.606;8.738;2023-03-14T07:16:54;15.60;80.00
28546;DHT22;15749;49.606;8.738;2023-03-14T07:19:24;15.60;79.80
28546;DHT22;15749;49.606;8.738;2023-03-14T07:21:53;15.70;79.90
28546;DHT22;15749;49.606;8.738;2023-03-14T07:24:28;15.70;80.00
28546;DHT22;15749;49.606;8.738;2023-03-14T07:26:58;15.70;79.90
28546;DHT22;15749;49.606;8.738;2023-03-14T07:29:27;15.70;79.80
28546;DHT22;15749;49.606;8.738;2023-03-14T07:31:59;15.60;79.80
28546;DHT22;15749;49.606;8.738;2023-03-14T07:34:28;15.70;79.80
28546;DHT22;15749;49.606;8.738;2023-03-14T07:36:58;15.70;79.70
28546;DHT22;15749;49.606;8.738;2023-03-14T07:39:30;15.70;79.50
28546;DHT22;15749;49.606;8.738;2023-03-14T07:42:05;15.70;79.30
28546;DHT22;15749;49.606;8.738;2023-03-14T07:44:49;15.70;79.40
28546;DHT22;15749;49.606;8.738;2023-03-14T07:47:19;15.70;79.50
28546;DHT22;15749;49.606;8.738;2023-03-14T07:49:50;15.70;79.60
28546;DHT22;15749;49.606;8.738;2023-03-14T07:52:24;15.70;79.60
28546;DHT22;15749;49.606;8.738;2023-03-14T07:55:01;15.70;79.80
28546;DHT22;15749;49.606;8.738;2023-03-14T07:57:33;15.60;79.60
28546;DHT22;15749;49.606;8.738;2023-03-14T08:00:04;15.70;79.70
28546;DHT22;15749;49.606;8.738;2023-03-14T09:27:10;15.80;80.20
28546;DHT22;15749;49.606;8.738;2023-03-14T09:29:39;15.90;80.20
28546;DHT22;15749;49.606;8.738;2023-03-14T09:32:08;15.90;80.90
28546;DHT22;15749;49.606;8.738;2023-03-14T09:34:37;15.90;80.40
28546;DHT22;15749;49.606;8.738;2023-03-14T09:37:06;15.90;80.40
28546;DHT22;15749;49.606;8.738;2023-03-14T09:39:38;15.90;80.30
28546;DHT22;15749;49.606;8.738;2023-03-14T09:42:12;15.90;80.30
28546;DHT22;15749;49.606;8.738;2023-03-14T09:44:52;16.00;80.30
28546;DHT22;15749;49.606;8.738;2023-03-14T09:47:23;16.00;80.00
28546;DHT22;15749;49.606;8.738;2023-03-14T09:49:53;16.00;80.00
28546;DHT22;15749;49.606;8.738;2023-03-14T09:52:26;16.00;80.10
28546;DHT22;15749;49.606;8.738;2023-03-14T09:55:01;16.00;80.50
28546;DHT22;15749;49.606;8.738;2023-03-14T09:57:35;16.00;79.80
28546;DHT22;15749;49.606;8.738;2023-03-14T10:00:10;16.00;79.90
28546;DHT22;15749;49.606;8.738;2023-03-14T10:02:49;16.10;79.80
28546;DHT22;15749;49.606;8.738;2023-03-14T10:05:22;16.00;79.80
28546;DHT22;15749;49.606;8.738;2023-03-14T10:07:52;16.00;79.70
28546;DHT22;15749;49.606;8.738;2023-03-14T10:10:23;16.10;79.60
28546;DHT22;15749;49.606;8.738;2023-03-14T10:12:57;16.10;79.60
28546;DHT22;15749;49.606;8.738;2023-03-14T10:15:31;16.10;79.70
28546;DHT22;15749;49.606;8.738;2023-03-14T10:18:02;16.10;79.70
28546;DHT22;15749;49.606;8.738;2023-03-14T10:20:39;16.10;80.50
28546;DHT22;15749;49.606;8.738;2023-03-14T10:23:24;16.10;79.90
28546;DHT22;15749;49.606;8.738;2023-03-14T10:26:03;16.10;79.80
28546;DHT22;15749;49.606;8.738;2023-03-14T10:28:44;16.10;79.70
28546;DHT22;15749;49.606;8.738;2023-03-14T10:31:15;16.10;79.90
28546;DHT22;15749;49.606;8.738;2023-03-14T10:33:58;16.10;79.80
28546;DHT22;15749;49.606;8.738;2023-03-14T10:36:28;16.10;79.80
28546;DHT22;15749;49.606;8.738;2023-03-14T10:39:16;16.20;79.90
28546;DHT22;15749;49.606;8.738;2023-03-14T10:41:53;16.10;80.00
28546;DHT22;15749;49.606;8.738;2023-03-14T10:44:28;16.10;79.80
28546;DHT22;15749;49.606;8.738;2023-03-14T10:46:59;16.10;80.50
28546;DHT22;15749;49.606;8.738;2023-03-14T10:49:32;16.10;79.90
28546;DHT22;15749;49.606;8.738;2023-03-14T10:52:13;16.10;79.90
28546;DHT22;15749;49.606;8.738;2023-03-14T10:54:47;16.10;80.30
28546;DHT22;15749;49.606;8.738;2023-03-14T10:57:19;16.10;80.10
28546;DHT22;15749;49.606;8.738;2023-03-14T10:59:51;16.10;79.90
28546;DHT22;15749;49.606;8.738;2023-03-14T11:02:40;16.10;79.90
28546;DHT22;15749;49.606;8.738;2023-03-14T11:05:23;16.10;80.30
28546;DHT22;15749;49.606;8.738;2023-03-14T11:08:01;16.10;80.10
28546;DHT22;15749;49.606;8.738;2023-03-14T11:10:35;16.10;80.10
28546;DHT22;15749;49.606;8.738;2023-03-14T11:13:15;16.10;79.90
28546;DHT22;15749;49.606;8.738;2023-03-14T11:15:52;16.10;80.00
28546;DHT22;15749;49.606;8.738;2023-03-14T11:22:13;16.10;80.00
28546;DHT22;15749;49.606;8.738;2023-03-14T11:25:02;16.10;80.00
28546;DHT22;15749;49.606;8.738;2023-03-14T11:27:42;16.00;80.00
28546;DHT22;15749;49.606;8.738;2023-03-14T11:30:19;16.00;79.90
28546;DHT22;15749;49.606;8.738;2023-03-14T11:33:03;16.00;80.00
28546;DHT22;15749;49.606;8.738;2023-03-14T11:35:38;16.00;80.30
28546;DHT22;15749;49.606;8.738;2023-03-14T11:38:17;15.90;80.20
28546;DHT22;15749;49.606;8.738;2023-03-14T11:40:54;15.90;80.10
28546;DHT22;15749;49.606;8.738;2023-03-14T11:43:29;15.90;80.10
28546;DHT22;15749;49.606;8.738;2023-03-14T11:46:04;15.90;80.10
28546;DHT22;15749;49.606;8.738;2023-03-14T11:48:43;15.90;80.30
28546;DHT22;15749;49.606;8.738;2023-03-14T11:51:20;15.90;81.10
28546;DHT22;15749;49.606;8.738;2023-03-14T11:54:00;15.80;80.30
28546;DHT22;15749;49.606;8.738;2023-03-14T11:56:36;15.80;80.30
28546;DHT22;15749;49.606;8.738;2023-03-14T11:59:14;15.80;80.30
28546;DHT22;15749;49.606;8.738;2023-03-14T12:01:52;15.80;80.40
28546;DHT22;15749;49.606;8.738;2023-03-14T12:04:40;15.70;80.40
28546;DHT22;15749;49.606;8.738;2023-03-14T12:07:19;15.70;80.60
28546;DHT22;15749;49.606;8.738;2023-03-14T12:09:52;15.70;80.70
28546;DHT22;15749;49.606;8.738;2023-03-14T12:12:24;15.70;80.80
28546;DHT22;15749;49.606;8.738;2023-03-14T12:14:55;15.70;80.90
28546;DHT22;15749;49.606;8.738;2023-03-14T12:17:34;15.70;81.10
28546;DHT22;15749;49.606;8.738;2023-03-14T12:20:16;15.70;81.20
28546;DHT22;15749;49.606;8.738;2023-03-14T12:22:48;15.60;81.50
28546;DHT22;15749;49.606;8.738;2023-03-14T12:25:20;15.60;81.20
28546;DHT22;15749;49.606;8.738;2023-03-14T12:28:18;15.60;81.20
28546;DHT22;15749;49.606;8.738;2023-03-14T12:30:48;15.60;81.40
28546;DHT22;15749;49.606;8.738;2023-03-14T12:33:30;15.60;81.00
28546;DHT22;15749;49.606;8.738;2023-03-14T12:36:12;15.60;81.20
28546;DHT22;15749;49.606;8.738;2023-03-14T12:39:10;15.60;80.90
28546;DHT22;15749;49.606;8.738;2023-03-14T12:41:48;15.50;80.50
28546;DHT22;15749;49.606;8.738;2023-03-14T12:44:38;15.50;80.10
28546;DHT22;15749;49.606;8.738;2023-03-14T12:47:44;15.50;80.20
28546;DHT22;15749;49.606;8.738;2023-03-14T12:50:24;15.40;80.70
28546;DHT22;15749;49.606;8.738;2023-03-14T12:56:22;15.40;79.70
28546;DHT22;15749;49.606;8.738;2023-03-14T12:59:21;15.40;79.80
28546;DHT22;15749;49.606;8.738;2023-03-14T13:02:21;15.40;79.80
28546;DHT22;15749;49.606;8.738;2023-03-14T13:04:59;15.40;79.60
28546;DHT22;15749;49.606;8.738;2023-03-14T13:08:01;15.30;79.40
28546;DHT22;15749;49.606;8.738;2023-03-14T13:10:45;15.30;79.30
28546;DHT22;15749;49.606;8.738;2023-03-14T13:13:21;15.30;79.30
28546;DHT22;15749;49.606;8.738;2023-03-14T13:15:55;15.30;79.30
28546;DHT22;15749;49.606;8.738;2023-03-14T13:18:32;15.20;79.80
28546;DHT22;15749;49.606;8.738;2023-03-14T13:21:07;15.20;79.10
28546;DHT22;15749;49.606;8.738;2023-03-14T13:23:41;15.20;79.20
28546;DHT22;15749;49.606;8.738;2023-03-14T13:26:25;15.10;79.10
28546;DHT22;15749;49.606;8.738;2023-03-14T13:29:09;15.10;78.90
28546;DHT22;15749;49.606;8.738;2023-03-14T13:31:43;15.10;79.10
28546;DHT22;15749;49.606;8.738;2023-03-14T13:34:14;15.10;79.10
28546;DHT22;15749;49.606;8.738;2023-03-14T13:36:44;15.10;79.00
28546;DHT22;15749;49.606;8.738;2023-03-14T13:39:18;15.00;79.50
28546;DHT22;15749;49.606;8.738;2023-03-14T13:41:49;15.10;78.60
28546;DHT22;15749;49.606;8.738;2023-03-14T13:44:25;15.10;79.00
28546;DHT22;15749;49.606;8.738;2023-03-14T13:46:58;15.00;79.20
28546;DHT22;15749;49.606;8.738;2023-03-14T13:49:29;15.00;78.40
28546;DHT22;15749;49.606;8.738;2023-03-14T13:52:04;15.00;78.50
28546;DHT22;15749;49.606;8.738;2023-03-14T13:54:54;15.00;77.80
28546;DHT22;15749;49.606;8.738;2023-03-14T13:57:25;14.90;77.80
28546;DHT22;15749;49.606;8.738;2023-03-14T14:00:03;14.90;77.90
28546;DHT22;15749;49.606;8.738;2023-03-14T14:02:37;14.90;78.00
28546;DHT22;15749;49.606;8.738;2023-03-14T14:05:10;14.90;78.20
28546;DHT22;15749;49.606;8.738;2023-03-14T14:07:40;14.90;78.10
28546;DHT22;15749;49.606;8.738;2023-03-14T14:10:13;14.90;78.30
28546;DHT22;15749;49.606;8.738;2023-03-14T14:12:46;14.90;78.20
28546;DHT22;15749;49.606;8.738;2023-03-14T14:15:20;14.90;78.10
28546;DHT22;15749;49.606;8.738;2023-03-14T14:17:52;14.90;77.60
28546;DHT22;15749;49.606;8.738;2023-03-14T14:20:26;14.80;77.70
28546;DHT22;15749;49.606;8.738;2023-03-14T14:23:01;14.80;77.70
28546;DHT22;15749;49.606;8.738;2023-03-14T14:25:32;14.80;77.60
28546;DHT22;15749;49.606;8.738;2023-03-14T14:28:14;14.80;78.40
28546;DHT22;15749;49.606;8.738;2023-03-14T14:30:46;14.70;77.30
28546;DHT22;15749;49.606;8.738;2023-03-14T14:33:20;14.70;78.20
28546;DHT22;15749;49.606;8.738;2023-03-14T14:35:52;14.70;77.60
28546;DHT22;15749;49.606;8.738;2023-03-14T14:38:24;14.60;77.60
28546;DHT22;15749;49.606;8.738;2023-03-14T14:41:00;14.60;77.60
28546;DHT22;15749;49.606;8.738;2023-03-14T14:43:32;14.60;77.20
28546;DHT22;15749;49.606;8.738;2023-03-14T14:46:06;14.60;77.40
28546;DHT22;15749;49.606;8.738;2023-03-14T14:48:37;14.60;77.30
28546;DHT22;15749;49.606;8.738;2023-03-14T14:51:07;14.60;77.40
28546;DHT22;15749;49.606;8.738;2023-03-14T14:53:38;14.60;77.40
28546;DHT22;15749;49.606;8.738;2023-03-14T14:56:16;14.60;77.70
28546;DHT22;15749;49.606;8.738;2023-03-14T14:58:50;14.60;76.90
28546;DHT22;15749;49.606;8.738;2023-03-14T15:01:31;14.60;77.20
28546;DHT22;15749;49.606;8.738;2023-03-14T15:04:02;14.60;76.50
28546;DHT22;15749;49.606;8.738;2023-03-14T15:06:33;14.60;77.40
28546;DHT22;15749;49.606;8.738;2023-03-14T15:09:05;14.60;76.70
28546;DHT22;15749;49.606;8.738;2023-03-14T15:11:37;14.50;76.00
28546;DHT22;15749;49.606;8.738;2023-03-14T15:14:07;14.50;76.90
28546;DHT22;15749;49.606;8.738;2023-03-14T15:16:36;14.50;75.70
28546;DHT22;15749;49.606;8.738;2023-03-14T15:19:11;14.50;75.70
28546;DHT22;15749;49.606;8.738;2023-03-14T15:21:51;14.50;75.40
28546;DHT22;15749;49.606;8.738;2023-03-14T15:24:21;14.50;75.10
28546;DHT22;15749;49.606;8.738;2023-03-14T15:26:52;14.50;75.30
28546;DHT22;15749;49.606;8.738;2023-03-14T15:29:21;14.50;74.70
28546;DHT22;15749;49.606;8.738;2023-03-14T15:31:50;14.50;75.40
28546;DHT22;15749;49.606;8.738;2023-03-14T15:34:19;14.40;75.50
28546;DHT22;15749;49.606;8.738;2023-03-14T15:36:48;14.50;74.60
28546;DHT22;15749;49.606;8.738;2023-03-14T15:39:17;14.40;74.40
28546;DHT22;15749;49.606;8.738;2023-03-14T15:41:46;14.40;74.30
28546;DHT22;15749;49.606;8.738;2023-03-14T15:44:16;14.40;74.50
28546;DHT22;15749;49.606;8.738;2023-03-14T15:46:45;14.40;74.60
28546;DHT22;15749;49.606;8.738;2023-03-14T15:49:14;14.40;74.90
28546;DHT22;15749;49.606;8.738;2023-03-14T15:51:44;14.40;75.20
28546;DHT22;15749;49.606;8.738;2023-03-14T15:54:13;14.50;75.20
28546;DHT22;15749;49.606;8.738;2023-03-14T15:56:42;14.40;75.00
28546;DHT22;15749;49.606;8.738;2023-03-14T15:59:11;14.40;75.20
28546;DHT22;15749;49.606;8.738;2023-03-14T16:01:44;14.50;74.80
28546;DHT22;15749;49.606;8.738;2023-03-14T16:04:15;14.50;74.60
28546;DHT22;15749;49.606;8.738;2023-03-14T16:06:45;14.40;73.70
28546;DHT22;15749;49.606;8.738;2023-03-14T16:09:14;14.40;73.90
28546;DHT22;15749;49.606;8.738;2023-03-14T16:11:43;14.50;74.30
28546;DHT22;15749;49.606;8.738;2023-03-14T16:14:16;14.50;74.30
28546;DHT22;15749;49.606;8.738;2023-03-14T16:16:47;14.50;74.40
28546;DHT22;15749;49.606;8.738;2023-03-14T16:19:16;14.50;74.20
28546;DHT22;15749;49.606;8.738;2023-03-14T16:21:45;14.50;74.50
28546;DHT22;15749;49.606;8.738;2023-03-14T16:24:15;14.50;74.70
28546;DHT22;15749;49.606;8.738;2023-03-14T16:26:44;14.50;74.60
28546;DHT22;15749;49.606;8.738;2023-03-14T16:29:16;14.60;74.70
28546;DHT22;15749;49.606;8.738;2023-03-14T16:31:49;14.60;74.50
28546;DHT22;15749;49.606;8.738;2023-03-14T16:34:18;14.60;74.40
28546;DHT22;15749;49.606;8.738;2023-03-14T16:36:48;14.60;75.40
28546;DHT22;15749;49.606;8.738;2023-03-14T16:39:19;14.60;74.70
28546;DHT22;15749;49.606;8.738;2023-03-14T16:41:51;14.70;74.60
28546;DHT22;15749;49.606;8.738;2023-03-14T16:44:25;14.70;74.50
28546;DHT22;15749;49.606;8.738;2023-03-14T16:46:55;14.70;74.30
28546;DHT22;15749;49.606;8.738;2023-03-14T16:49:25;14.70;74.10
28546;DHT22;15749;49.606;8.738;2023-03-14T16:51:56;14.80;74.30
28546;DHT22;15749;49.606;8.738;2023-03-14T16:54:25;14.80;74.40
28546;DHT22;15749;49.606;8.738;2023-03-14T16:56:54;14.80;74.50
28546;DHT22;15749;49.606;8.738;2023-03-14T16:59:23;14.80;74.60
28546;DHT22;15749;49.606;8.738;2023-03-14T17:01:56;14.80;74.50
28546;DHT22;15749;49.606;8.738;2023-03-14T17:04:26;14.90;74.50
28546;DHT22;15749;49.606;8.738;2023-03-14T17:06:55;14.90;73.70
28546;DHT22;15749;49.606;8.738;2023-03-14T17:09:27;14.90;74.40
28546;DHT22;15749;49.606;8.738;2023-03-14T17:12:24;14.90;74.70
28546;DHT22;15749;49.606;8.738;2023-03-14T17:14:54;14.90;74.50
28546;DHT22;15749;49.606;8.738;2023-03-14T17:17:25;15.00;74.50
28546;DHT22;15749;49.606;8.738;2023-03-14T17:23:59;15.00;74.70
28546;DHT22;15749;49.606;8.738;2023-03-14T17:26:29;15.00;74.70
28546;DHT22;15749;49.606;8.738;2023-03-14T17:28:58;15.00;74.80
28546;DHT22;15749;49.606;8.738;2023-03-14T17:31:28;15.10;74.50
28546;DHT22;15749;49.606;8.738;2023-03-14T17:33:59;15.10;74.90
28546;DHT22;15749;49.606;8.738;2023-03-14T17:36:28;15.10;75.00
28546;DHT22;15749;49.606;8.738;2023-03-14T17:39:11;15.00;75.20
28546;DHT22;15749;49.606;8.738;2023-03-14T17:42:01;15.10;75.00
28546;DHT22;15749;49.606;8.738;2023-03-14T17:44:31;15.10;74.90
28546;DHT22;15749;49.606;8.738;2023-03-14T17:47:01;15.10;75.10
28546;DHT22;15749;49.606;8.738;2023-03-14T17:52:36;15.10;75.00
28546;DHT22;15749;49.606;8.738;2023-03-14T17:55:06;15.10;75.10
28546;DHT22;15749;49.606;8.738;2023-03-14T17:57:37;15.10;75.10
28546;DHT22;15749;49.606;8.738;2023-03-14T18:30:31;15.00;75.20
28546;DHT22;15749;49.606;8.738;2023-03-14T18:33:01;15.00;75.30
28546;DHT22;15749;49.606;8.738;2023-03-14T18:35:30;15.00;75.60
28546;DHT22;15749;49.606;8.738;2023-03-14T18:38:00;14.90;75.40
28546;DHT22;15749;49.606;8.738;2023-03-14T18:40:29;14.90;75.40
28546;DHT22;15749;49.606;8.738;2023-03-14T18:42:59;14.90;75.50
28546;DHT22;15749;49.606;8.738;2023-03-14T18:45:30;14.90;75.70
28546;DHT22;15749;49.606;8.738;2023-03-14T18:48:00;14.90;75.80
28546;DHT22;15749;49.606;8.738;2023-03-14T18:50:29;14.90;75.80
28546;DHT22;15749;49.606;8.738;2023-03-14T18:52:59;14.90;75.90
28546;DHT22;15749;49.606;8.738;2023-03-14T18:55:31;14.90;75.70
28546;DHT22;15749;49.606;8.738;2023-03-14T18:58:01;14.90;75.60
28546;DHT22;15749;49.606;8.738;2023-03-14T19:00:32;14.90;75.60
28546;DHT22;15749;49.606;8.738;2023-03-14T19:07:47;14.90;75.70
28546;DHT22;15749;49.606;8.738;2023-03-14T19:10:17;14.90;75.60
28546;DHT22;15749;49.606;8.738;2023-03-14T19:16:47;14.80;75.60
28546;DHT22;15749;49.606;8.738;2023-03-14T19:19:18;14.80;75.40
28546;DHT22;15749;49.606;8.738;2023-03-14T19:21:54;14.80;75.60
28546;DHT22;15749;49.606;8.738;2023-03-14T19:24:29;14.80;75.40
28546;DHT22;15749;49.606;8.738;2023-03-14T19:27:02;14.70;75.70